sensor_id;sensor_type;location;lat;lon;timestamp;temperature;humidity
21502;DHT22;27639;48.674;9.242;2022-12-05T00:00:54;6.60;63.60
21502;DHT22;27639;48.674;9.242;2022-12-05T00:03:20;6.60;63.60
21502;DHT22;27639;48.674;9.242;2022-12-05T00:05:46;6.60;63.60
21502;DHT22;27639;48.674;9.242;2022-12-05T00:08:11;6.70;63.70
21502;DHT22;27639;48.674;9.242;2022-12-05T00:10:38;6.60;63.60
21502;DHT22;27639;48.674;9.242;2022-12-05T00:13:04;6.60;63.60
21502;DHT22;27639;48.674;9.242;2022-12-05T00:15:29;6.50;63.50
21502;DHT22;27639;48.674;9.242;2022-12-05T00:17:55;6.50;63.50
21502;DHT22;27639;48.674;9.242;2022-12-05T00:20:21;6.40;63.40
21502;DHT22;27639;48.674;9.242;2022-12-05T00:22:46;6.40;63.40
21502;DHT22;27639;48.674;9.242;2022-12-05T00:25:12;6.40;63.40
21502;DHT22;27639;48.674;9.242;2022-12-05T00:27:37;6.50;63.50
21502;DHT22;27639;48.674;9.242;2022-12-05T00:30:04;6.50;63.50
21502;DHT22;27639;48.674;9.242;2022-12-05T00:32:30;6.50;63.50
21502;DHT22;27639;48.674;9.242;2022-12-05T00:34:56;6.40;63.40
21502;DHT22;27639;48.674;9.242;2022-12-05T00:37:22;6.40;63.40
21502;DHT22;27639;48.674;9.242;2022-12-05T00:39:48;6.40;63.40
21502;DHT22;27639;48.674;9.242;2022-12-05T00:42:14;6.50;63.50
21502;DHT22;27639;48.674;9.242;2022-12-05T00:44:39;6.40;63.40
21502;DHT22;27639;48.674;9.242;2022-12-05T00:47:05;6.40;63.40
21502;DHT22;27639;48.674;9.242;2022-12-05T00:49:30;6.40;63.40
21502;DHT22;27639;48.674;9.242;2022-12-05T00:51:56;6.30;63.80
21502;DHT22;27639;48.674;9.242;2022-12-05T00:54:22;6.30;64.00
21502;DHT22;27639;48.674;9.242;2022-12-05T00:56:47;6.40;64.20
21502;DHT22;27639;48.674;9.242;2022-12-05T00:59:17;6.40;64.20
21502;DHT22;27639;48.674;9.242;2022-12-05T01:01:45;6.40;64.20
21502;DHT22;27639;48.674;9.242;2022-12-05T01:04:17;6.40;64.20
21502;DHT22;27639;48.674;9.242;2022-12-05T01:06:43;6.30;64.20
21502;DHT22;27639;48.674;9.242;2022-12-05T01:09:14;6.30;64.30
21502;DHT22;27639;48.674;9.242;2022-12-05T01:11:40;6.30;64.40
21502;DHT22;27639;48.674;9.242;2022-12-05T01:14:07;6.40;64.40
21502;DHT22;27639;48.674;9.242;2022-12-05T01:16:35;6.40;64.40
21502;DHT22;27639;48.674;9.242;2022-12-05T01:19:07;6.40;64.40
21502;DHT22;27639;48.674;9.242;2022-12-05T01:21:33;6.50;64.50
21502;DHT22;27639;48.674;9.242;2022-12-05T01:23:58;6.40;64.40
21502;DHT22;27639;48.674;9.242;2022-12-05T01:26:24;6.40;64.40
21502;DHT22;27639;48.674;9.242;2022-12-05T01:28:50;6.40;64.40
21502;DHT22;27639;48.674;9.242;2022-12-05T01:31:26;6.50;64.40
21502;DHT22;27639;48.674;9.242;2022-12-05T01:33:54;6.50;64.30
21502;DHT22;27639;48.674;9.242;2022-12-05T01:36:21;6.60;64.30
21502;DHT22;27639;48.674;9.242;2022-12-05T01:38:47;6.60;64.30
21502;DHT22;27639;48.674;9.242;2022-12-05T01:41:33;6.50;64.40
21502;DHT22;27639;48.674;9.242;2022-12-05T01:51:42;6.50;64.70
21502;DHT22;27639;48.674;9.242;2022-12-05T01:54:09;6.50;64.60
21502;DHT22;27639;48.674;9.242;2022-12-05T01:56:36;6.50;64.80
21502;DHT22;27639;48.674;9.242;2022-12-05T01:59:04;6.50;64.80
21502;DHT22;27639;48.674;9.242;2022-12-05T02:01:31;6.50;64.80
21502;DHT22;27639;48.674;9.242;2022-12-05T02:03:57;6.60;64.80
21502;DHT22;27639;48.674;9.242;2022-12-05T02:06:25;6.50;64.80
21502;DHT22;27639;48.674;9.242;2022-12-05T02:08:52;6.50;64.80
21502;DHT22;27639;48.674;9.242;2022-12-05T02:11:18;6.60;64.90
21502;DHT22;27639;48.674;9.242;2022-12-05T02:14:07;6.50;65.00
21502;DHT22;27639;48.674;9.242;2022-12-05T02:29:55;6.40;65.70
21502;DHT22;27639;48.674;9.242;2022-12-05T02:41:00;6.30;66.00
21502;DHT22;27639;48.674;9.242;2022-12-05T02:43:36;6.30;66.00
21502;DHT22;27639;48.674;9.242;2022-12-05T02:46:10;6.30;66.20
21502;DHT22;27639;48.674;9.242;2022-12-05T02:48:38;6.40;66.30
21502;DHT22;27639;48.674;9.242;2022-12-05T02:51:06;6.40;66.20
21502;DHT22;27639;48.674;9.242;2022-12-05T02:53:36;6.50;66.20
21502;DHT22;27639;48.674;9.242;2022-12-05T02:56:03;6.60;66.20
21502;DHT22;27639;48.674;9.242;2022-12-05T02:58:44;6.60;66.00
21502;DHT22;27639;48.674;9.242;2022-12-05T03:01:12;6.60;65.80
21502;DHT22;27639;48.674;9.242;2022-12-05T03:03:39;6.60;66.10
21502;DHT22;27639;48.674;9.242;2022-12-05T03:06:05;6.60;66.10
21502;DHT22;27639;48.674;9.242;2022-12-05T03:08:58;6.70;66.10
21502;DHT22;27639;48.674;9.242;2022-12-05T03:11:22;6.70;66.00
21502;DHT22;27639;48.674;9.242;2022-12-05T03:13:51;6.70;66.00
21502;DHT22;27639;48.674;9.242;2022-12-05T03:16:38;6.70;65.90
21502;DHT22;27639;48.674;9.242;2022-12-05T03:19:12;6.80;65.70
21502;DHT22;27639;48.674;9.242;2022-12-05T03:21:45;6.80;65.90
21502;DHT22;27639;48.674;9.242;2022-12-05T03:24:14;6.80;65.90
21502;DHT22;27639;48.674;9.242;2022-12-05T03:29:35;6.80;65.60
21502;DHT22;27639;48.674;9.242;2022-12-05T03:43:00;6.90;65.70
21502;DHT22;27639;48.674;9.242;2022-12-05T03:46:10;6.90;65.60
21502;DHT22;27639;48.674;9.242;2022-12-05T03:51:16;6.90;65.40
21502;DHT22;27639;48.674;9.242;2022-12-05T03:53:47;6.90;65.50
21502;DHT22;27639;48.674;9.242;2022-12-05T03:56:21;7.00;65.60
21502;DHT22;27639;48.674;9.242;2022-12-05T03:59:01;7.00;65.70
21502;DHT22;27639;48.674;9.242;2022-12-05T04:01:28;7.00;65.40
21502;DHT22;27639;48.674;9.242;2022-12-05T04:03:59;7.00;65.40
21502;DHT22;27639;48.674;9.242;2022-12-05T04:06:33;7.00;66.10
21502;DHT22;27639;48.674;9.242;2022-12-05T04:09:03;7.00;65.00
21502;DHT22;27639;48.674;9.242;2022-12-05T04:11:33;7.10;65.10
21502;DHT22;27639;48.674;9.242;2022-12-05T04:14:21;7.10;64.80
21502;DHT22;27639;48.674;9.242;2022-12-05T04:16:53;7.10;64.10
21502;DHT22;27639;48.674;9.242;2022-12-05T04:22:33;7.00;64.00
21502;DHT22;27639;48.674;9.242;2022-12-05T04:25:01;7.00;64.30
21502;DHT22;27639;48.674;9.242;2022-12-05T04:33:47;6.80;64.80
21502;DHT22;27639;48.674;9.242;2022-12-05T04:36:22;6.80;64.80
21502;DHT22;27639;48.674;9.242;2022-12-05T04:39:06;6.90;65.00
21502;DHT22;27639;48.674;9.242;2022-12-05T04:41:39;6.80;64.60
21502;DHT22;27639;48.674;9.242;2022-12-05T04:44:08;6.90;64.60
21502;DHT22;27639;48.674;9.242;2022-12-05T04:46:37;6.80;64.40
21502;DHT22;27639;48.674;9.242;2022-12-05T04:49:06;6.80;64.20
21502;DHT22;27639;48.674;9.242;2022-12-05T04:51:34;6.80;63.80
21502;DHT22;27639;48.674;9.242;2022-12-05T04:54:09;6.70;63.80
21502;DHT22;27639;48.674;9.242;2022-12-05T04:56:41;6.70;63.70
21502;DHT22;27639;48.674;9.242;2022-12-05T04:59:08;6.70;63.70
21502;DHT22;27639;48.674;9.242;2022-12-05T05:01:42;6.60;64.00
21502;DHT22;27639;48.674;9.242;2022-12-05T05:04:21;6.60;64.00
21502;DHT22;27639;48.674;9.242;2022-12-05T05:06:48;6.60;64.20
21502;DHT22;27639;48.674;9.242;2022-12-05T05:09:13;6.60;64.40
21502;DHT22;27639;48.674;9.242;2022-12-05T05:11:39;6.50;64.50
21502;DHT22;27639;48.674;9.242;2022-12-05T05:14:05;6.50;65.30
21502;DHT22;27639;48.674;9.242;2022-12-05T05:16:34;6.50;64.30
21502;DHT22;27639;48.674;9.242;2022-12-05T05:18:59;6.50;64.30
21502;DHT22;27639;48.674;9.242;2022-12-05T05:21:28;6.50;65.10
21502;DHT22;27639;48.674;9.242;2022-12-05T05:23:54;6.50;64.60
21502;DHT22;27639;48.674;9.242;2022-12-05T05:26:21;6.40;64.50
21502;DHT22;27639;48.674;9.242;2022-12-05T05:28:48;6.40;64.80
21502;DHT22;27639;48.674;9.242;2022-12-05T05:31:14;6.40;65.20
21502;DHT22;27639;48.674;9.242;2022-12-05T05:33:40;6.40;65.30
21502;DHT22;27639;48.674;9.242;2022-12-05T05:36:11;6.40;65.40
21502;DHT22;27639;48.674;9.242;2022-12-05T05:38:38;6.40;65.30
21502;DHT22;27639;48.674;9.242;2022-12-05T05:41:04;6.50;65.40
21502;DHT22;27639;48.674;9.242;2022-12-05T05:43:30;6.50;65.40
21502;DHT22;27639;48.674;9.242;2022-12-05T05:45:56;6.50;65.30
21502;DHT22;27639;48.674;9.242;2022-12-05T05:48:22;6.50;65.40
21502;DHT22;27639;48.674;9.242;2022-12-05T05:50:48;6.60;65.50
21502;DHT22;27639;48.674;9.242;2022-12-05T05:53:13;6.60;65.50
21502;DHT22;27639;48.674;9.242;2022-12-05T05:55:40;6.60;66.40
21502;DHT22;27639;48.674;9.242;2022-12-05T05:58:06;6.60;65.60
21502;DHT22;27639;48.674;9.242;2022-12-05T06:00:32;6.60;65.60
21502;DHT22;27639;48.674;9.242;2022-12-05T06:02:57;6.70;65.70
21502;DHT22;27639;48.674;9.242;2022-12-05T06:05:23;6.70;65.50
21502;DHT22;27639;48.674;9.242;2022-12-05T06:07:48;6.70;65.30
21502;DHT22;27639;48.674;9.242;2022-12-05T06:10:16;6.70;65.10
21502;DHT22;27639;48.674;9.242;2022-12-05T06:12:41;6.80;65.00
21502;DHT22;27639;48.674;9.242;2022-12-05T06:15:07;6.70;65.20
21502;DHT22;27639;48.674;9.242;2022-12-05T06:17:33;6.70;65.20
21502;DHT22;27639;48.674;9.242;2022-12-05T06:19:59;6.70;65.30
21502;DHT22;27639;48.674;9.242;2022-12-05T06:22:24;6.70;65.40
21502;DHT22;27639;48.674;9.242;2022-12-05T06:24:50;6.70;65.50
21502;DHT22;27639;48.674;9.242;2022-12-05T06:27:15;6.80;65.50
21502;DHT22;27639;48.674;9.242;2022-12-05T06:29:41;6.70;65.50
21502;DHT22;27639;48.674;9.242;2022-12-05T06:32:06;6.80;65.60
21502;DHT22;27639;48.674;9.242;2022-12-05T06:34:32;6.80;65.50
21502;DHT22;27639;48.674;9.242;2022-12-05T06:36:59;6.80;65.40
21502;DHT22;27639;48.674;9.242;2022-12-05T06:39:25;6.80;65.40
21502;DHT22;27639;48.674;9.242;2022-12-05T06:41:51;6.80;65.40
21502;DHT22;27639;48.674;9.242;2022-12-05T06:44:16;6.90;65.60
21502;DHT22;27639;48.674;9.242;2022-12-05T06:46:42;6.90;65.60
21502;DHT22;27639;48.674;9.242;2022-12-05T06:49:12;6.90;65.50
21502;DHT22;27639;48.674;9.242;2022-12-05T06:51:37;6.90;65.50
21502;DHT22;27639;48.674;9.242;2022-12-05T06:54:03;7.00;65.70
21502;DHT22;27639;48.674;9.242;2022-12-05T06:56:28;7.00;65.60
21502;DHT22;27639;48.674;9.242;2022-12-05T06:58:54;7.00;65.40
21502;DHT22;27639;48.674;9.242;2022-12-05T07:01:22;7.00;65.40
21502;DHT22;27639;48.674;9.242;2022-12-05T07:04:23;7.00;65.30
21502;DHT22;27639;48.674;9.242;2022-12-05T07:06:50;7.00;65.10
21502;DHT22;27639;48.674;9.242;2022-12-05T07:09:21;7.00;65.40
21502;DHT22;27639;48.674;9.242;2022-12-05T07:11:50;7.00;65.30
21502;DHT22;27639;48.674;9.242;2022-12-05T07:14:16;6.90;65.30
21502;DHT22;27639;48.674;9.242;2022-12-05T07:16:42;7.00;65.40
21502;DHT22;27639;48.674;9.242;2022-12-05T07:19:09;6.90;65.30
21502;DHT22;27639;48.674;9.242;2022-12-05T07:21:35;6.90;65.50
21502;DHT22;27639;48.674;9.242;2022-12-05T07:24:00;6.90;65.70
21502;DHT22;27639;48.674;9.242;2022-12-05T07:26:26;6.90;65.70
21502;DHT22;27639;48.674;9.242;2022-12-05T07:28:54;6.90;65.90
21502;DHT22;27639;48.674;9.242;2022-12-05T07:31:21;6.90;66.10
21502;DHT22;27639;48.674;9.242;2022-12-05T07:33:51;7.00;66.30
21502;DHT22;27639;48.674;9.242;2022-12-05T07:36:19;7.10;66.40
21502;DHT22;27639;48.674;9.242;2022-12-05T07:38:45;7.10;66.50
21502;DHT22;27639;48.674;9.242;2022-12-05T07:41:29;7.10;66.40
21502;DHT22;27639;48.674;9.242;2022-12-05T07:43:56;7.20;66.10
21502;DHT22;27639;48.674;9.242;2022-12-05T07:46:22;7.10;66.30
21502;DHT22;27639;48.674;9.242;2022-12-05T07:48:48;7.10;66.50
21502;DHT22;27639;48.674;9.242;2022-12-05T07:51:15;7.20;66.70
21502;DHT22;27639;48.674;9.242;2022-12-05T07:53:41;7.20;66.60
21502;DHT22;27639;48.674;9.242;2022-12-05T07:56:09;7.30;66.60
21502;DHT22;27639;48.674;9.242;2022-12-05T07:58:36;7.40;66.70
21502;DHT22;27639;48.674;9.242;2022-12-05T08:01:31;7.40;66.70
21502;DHT22;27639;48.674;9.242;2022-12-05T08:03:58;7.50;66.40
21502;DHT22;27639;48.674;9.242;2022-12-05T08:06:27;7.50;66.50
21502;DHT22;27639;48.674;9.242;2022-12-05T08:08:53;7.50;66.40
21502;DHT22;27639;48.674;9.242;2022-12-05T08:11:22;7.60;66.40
21502;DHT22;27639;48.674;9.242;2022-12-05T08:13:48;7.60;66.20
21502;DHT22;27639;48.674;9.242;2022-12-05T08:16:17;7.60;66.20
21502;DHT22;27639;48.674;9.242;2022-12-05T08:18:43;7.70;66.10
21502;DHT22;27639;48.674;9.242;2022-12-05T08:21:11;7.70;66.00
21502;DHT22;27639;48.674;9.242;2022-12-05T08:23:37;7.70;65.90
21502;DHT22;27639;48.674;9.242;2022-12-05T08:26:12;7.80;65.90
21502;DHT22;27639;48.674;9.242;2022-12-05T08:28:38;7.80;65.80
21502;DHT22;27639;48.674;9.242;2022-12-05T08:31:22;7.80;65.80
21502;DHT22;27639;48.674;9.242;2022-12-05T08:33:49;7.80;65.80
21502;DHT22;27639;48.674;9.242;2022-12-05T08:36:16;7.80;65.80
21502;DHT22;27639;48.674;9.242;2022-12-05T08:38:42;7.80;65.80
21502;DHT22;27639;48.674;9.242;2022-12-05T08:41:10;7.80;65.80
21502;DHT22;27639;48.674;9.242;2022-12-05T08:43:37;7.90;65.70
21502;DHT22;27639;48.674;9.242;2022-12-05T08:46:02;7.80;65.60
21502;DHT22;27639;48.674;9.242;2022-12-05T08:48:29;7.90;65.70
21502;DHT22;27639;48.674;9.242;2022-12-05T08:50:56;8.00;65.60
21502;DHT22;27639;48.674;9.242;2022-12-05T08:53:21;8.00;65.00
21502;DHT22;27639;48.674;9.242;2022-12-05T08:55:47;7.90;64.90
21502;DHT22;27639;48.674;9.242;2022-12-05T08:58:13;7.90;64.90
21502;DHT22;27639;48.674;9.242;2022-12-05T09:00:39;7.90;64.90
21502;DHT22;27639;48.674;9.242;2022-12-05T09:03:05;8.00;65.00
21502;DHT22;27639;48.674;9.242;2022-12-05T09:05:31;8.00;65.00
21502;DHT22;27639;48.674;9.242;2022-12-05T09:07:57;8.00;65.00
21502;DHT22;27639;48.674;9.242;2022-12-05T09:10:24;8.10;65.10
21502;DHT22;27639;48.674;9.242;2022-12-05T09:12:50;8.10;65.10
21502;DHT22;27639;48.674;9.242;2022-12-05T09:15:16;8.20;65.20
21502;DHT22;27639;48.674;9.242;2022-12-05T09:17:42;8.20;65.20
21502;DHT22;27639;48.674;9.242;2022-12-05T09:20:09;8.30;65.30
21502;DHT22;27639;48.674;9.242;2022-12-05T09:22:36;8.40;65.30
21502;DHT22;27639;48.674;9.242;2022-12-05T09:25:02;8.50;65.00
21502;DHT22;27639;48.674;9.242;2022-12-05T09:27:28;8.50;64.60
21502;DHT22;27639;48.674;9.242;2022-12-05T09:29:54;8.60;64.50
21502;DHT22;27639;48.674;9.242;2022-12-05T09:32:20;8.60;64.50
21502;DHT22;27639;48.674;9.242;2022-12-05T09:34:46;8.70;64.50
21502;DHT22;27639;48.674;9.242;2022-12-05T09:37:11;8.70;64.10
21502;DHT22;27639;48.674;9.242;2022-12-05T09:39:37;8.80;63.90
21502;DHT22;27639;48.674;9.242;2022-12-05T09:42:08;8.90;63.70
21502;DHT22;27639;48.674;9.242;2022-12-05T09:50:19;9.00;63.50
21502;DHT22;27639;48.674;9.242;2022-12-05T09:55:24;9.00;63.00
21502;DHT22;27639;48.674;9.242;2022-12-05T09:57:58;9.00;63.80
21502;DHT22;27639;48.674;9.242;2022-12-05T10:00:27;9.00;63.00
21502;DHT22;27639;48.674;9.242;2022-12-05T10:08:28;9.00;63.40
21502;DHT22;27639;48.674;9.242;2022-12-05T10:10:59;9.00;63.70
21502;DHT22;27639;48.674;9.242;2022-12-05T10:15:53;9.10;63.90
21502;DHT22;27639;48.674;9.242;2022-12-05T10:18:34;9.20;63.90
21502;DHT22;27639;48.674;9.242;2022-12-05T10:23:50;9.10;63.80
21502;DHT22;27639;48.674;9.242;2022-12-05T10:26:18;9.20;64.00
21502;DHT22;27639;48.674;9.242;2022-12-05T10:31:20;9.30;63.90
21502;DHT22;27639;48.674;9.242;2022-12-05T10:33:51;9.30;64.50
21502;DHT22;27639;48.674;9.242;2022-12-05T10:36:18;9.40;63.60
21502;DHT22;27639;48.674;9.242;2022-12-05T10:38:44;9.40;63.50
21502;DHT22;27639;48.674;9.242;2022-12-05T10:41:12;9.50;63.50
21502;DHT22;27639;48.674;9.242;2022-12-05T10:43:41;9.60;63.40
21502;DHT22;27639;48.674;9.242;2022-12-05T10:46:09;9.60;63.10
21502;DHT22;27639;48.674;9.242;2022-12-05T10:48:37;9.60;63.00
21502;DHT22;27639;48.674;9.242;2022-12-05T10:51:04;9.60;62.90
21502;DHT22;27639;48.674;9.242;2022-12-05T10:53:48;9.70;63.00
21502;DHT22;27639;48.674;9.242;2022-12-05T10:56:34;9.70;62.70
21502;DHT22;27639;48.674;9.242;2022-12-05T10:58:59;9.80;62.60
21502;DHT22;27639;48.674;9.242;2022-12-05T11:01:25;9.80;62.80
21502;DHT22;27639;48.674;9.242;2022-12-05T11:04:05;9.80;62.20
21502;DHT22;27639;48.674;9.242;2022-12-05T11:06:33;9.80;62.20
21502;DHT22;27639;48.674;9.242;2022-12-05T11:09:17;9.90;62.30
21502;DHT22;27639;48.674;9.242;2022-12-05T11:11:57;9.90;61.90
21502;DHT22;27639;48.674;9.242;2022-12-05T11:14:25;9.90;61.70
21502;DHT22;27639;48.674;9.242;2022-12-05T11:16:54;9.90;62.00
21502;DHT22;27639;48.674;9.242;2022-12-05T11:21:49;10.00;61.10
21502;DHT22;27639;48.674;9.242;2022-12-05T11:24:35;10.00;60.90
21502;DHT22;27639;48.674;9.242;2022-12-05T11:27:30;10.00;61.10
21502;DHT22;27639;48.674;9.242;2022-12-05T11:29:59;10.00;61.20
21502;DHT22;27639;48.674;9.242;2022-12-05T11:32:28;10.10;61.80
21502;DHT22;27639;48.674;9.242;2022-12-05T11:35:33;10.20;61.60
21502;DHT22;27639;48.674;9.242;2022-12-05T11:37:59;10.20;61.40
21502;DHT22;27639;48.674;9.242;2022-12-05T11:46:45;10.30;60.30
21502;DHT22;27639;48.674;9.242;2022-12-05T11:55:13;10.30;59.80
21502;DHT22;27639;48.674;9.242;2022-12-05T12:00:26;10.40;60.10
21502;DHT22;27639;48.674;9.242;2022-12-05T12:05:44;10.40;59.40
21502;DHT22;27639;48.674;9.242;2022-12-05T12:08:28;10.40;59.30
21502;DHT22;27639;48.674;9.242;2022-12-05T12:23:14;10.40;58.90
21502;DHT22;27639;48.674;9.242;2022-12-05T12:26:20;10.50;58.90
21502;DHT22;27639;48.674;9.242;2022-12-05T12:45:33;10.60;58.40
21502;DHT22;27639;48.674;9.242;2022-12-05T12:48:15;10.70;57.80
21502;DHT22;27639;48.674;9.242;2022-12-05T12:50:44;10.70;57.40
21502;DHT22;27639;48.674;9.242;2022-12-05T12:53:48;10.70;57.40
21502;DHT22;27639;48.674;9.242;2022-12-05T12:56:30;10.70;56.40
21502;DHT22;27639;48.674;9.242;2022-12-05T12:59:22;10.60;56.50
21502;DHT22;27639;48.674;9.242;2022-12-05T13:02:02;10.50;56.30
21502;DHT22;27639;48.674;9.242;2022-12-05T13:04:36;10.50;56.60
21502;DHT22;27639;48.674;9.242;2022-12-05T13:07:17;10.50;56.40
21502;DHT22;27639;48.674;9.242;2022-12-05T13:12:50;10.40;56.20
21502;DHT22;27639;48.674;9.242;2022-12-05T13:15:21;10.40;56.50
21502;DHT22;27639;48.674;9.242;2022-12-05T13:17:49;10.50;56.50
21502;DHT22;27639;48.674;9.242;2022-12-05T13:20:19;10.50;56.40
21502;DHT22;27639;48.674;9.242;2022-12-05T13:22:46;10.50;56.40
21502;DHT22;27639;48.674;9.242;2022-12-05T13:25:15;10.50;56.30
21502;DHT22;27639;48.674;9.242;2022-12-05T13:27:52;10.40;56.00
21502;DHT22;27639;48.674;9.242;2022-12-05T13:30:18;10.40;55.60
21502;DHT22;27639;48.674;9.242;2022-12-05T13:32:44;10.40;55.20
21502;DHT22;27639;48.674;9.242;2022-12-05T13:35:23;10.40;55.20
21502;DHT22;27639;48.674;9.242;2022-12-05T13:38:26;10.40;55.40
21502;DHT22;27639;48.674;9.242;2022-12-05T13:41:10;10.40;55.30
21502;DHT22;27639;48.674;9.242;2022-12-05T13:43:55;10.30;55.30
21502;DHT22;27639;48.674;9.242;2022-12-05T13:46:35;10.30;55.10
21502;DHT22;27639;48.674;9.242;2022-12-05T13:49:11;10.40;55.30
21502;DHT22;27639;48.674;9.242;2022-12-05T13:51:41;10.40;55.30
21502;DHT22;27639;48.674;9.242;2022-12-05T13:54:23;10.50;55.40
21502;DHT22;27639;48.674;9.242;2022-12-05T13:56:56;10.40;54.90
21502;DHT22;27639;48.674;9.242;2022-12-05T14:10:21;10.50;55.10
21502;DHT22;27639;48.674;9.242;2022-12-05T14:32:02;10.50;55.00
21502;DHT22;27639;48.674;9.242;2022-12-05T14:34:32;10.50;54.70
21502;DHT22;27639;48.674;9.242;2022-12-05T14:39:45;10.50;54.70
21502;DHT22;27639;48.674;9.242;2022-12-05T14:45:21;10.50;55.00
21502;DHT22;27639;48.674;9.242;2022-12-05T14:47:58;10.40;54.90
21502;DHT22;27639;48.674;9.242;2022-12-05T14:56:19;10.10;54.50
21502;DHT22;27639;48.674;9.242;2022-12-05T14:59:04;10.10;54.50
21502;DHT22;27639;48.674;9.242;2022-12-05T15:01:57;10.00;54.40
21502;DHT22;27639;48.674;9.242;2022-12-05T15:04:42;10.00;54.50
21502;DHT22;27639;48.674;9.242;2022-12-05T15:07:09;9.90;55.60
21502;DHT22;27639;48.674;9.242;2022-12-05T15:09:54;9.90;55.70
21502;DHT22;27639;48.674;9.242;2022-12-05T15:15:13;9.80;55.80
21502;DHT22;27639;48.674;9.242;2022-12-05T15:17:48;9.80;55.80
21502;DHT22;27639;48.674;9.242;2022-12-05T15:20:28;9.80;55.80
21502;DHT22;27639;48.674;9.242;2022-12-05T15:22:55;9.70;56.00
21502;DHT22;27639;48.674;9.242;2022-12-05T15:25:31;9.70;56.10
21502;DHT22;27639;48.674;9.242;2022-12-05T15:28:05;9.70;55.90
21502;DHT22;27639;48.674;9.242;2022-12-05T15:30:41;9.70;55.90
21502;DHT22;27639;48.674;9.242;2022-12-05T15:33:11;9.70;55.90
21502;DHT22;27639;48.674;9.242;2022-12-05T15:35:37;9.70;56.00
21502;DHT22;27639;48.674;9.242;2022-12-05T15:38:17;9.70;55.90
21502;DHT22;27639;48.674;9.242;2022-12-05T15:40:45;9.70;55.80
21502;DHT22;27639;48.674;9.242;2022-12-05T15:43:29;9.60;55.90
21502;DHT22;27639;48.674;9.242;2022-12-05T15:46:22;9.60;55.80
21502;DHT22;27639;48.674;9.242;2022-12-05T15:48:50;9.60;55.90
21502;DHT22;27639;48.674;9.242;2022-12-05T15:51:17;9.60;56.10
21502;DHT22;27639;48.674;9.242;2022-12-05T15:54:02;9.60;56.10
21502;DHT22;27639;48.674;9.242;2022-12-05T15:56:37;9.60;56.00
21502;DHT22;27639;48.674;9.242;2022-12-05T15:59:18;9.60;56.00
21502;DHT22;27639;48.674;9.242;2022-12-05T16:01:55;9.60;56.60
21502;DHT22;27639;48.674;9.242;2022-12-05T16:04:47;9.60;55.90
21502;DHT22;27639;48.674;9.242;2022-12-05T16:07:14;9.50;55.80
21502;DHT22;27639;48.674;9.242;2022-12-05T16:09:42;9.50;55.90
21502;DHT22;27639;48.674;9.242;2022-12-05T16:12:31;9.50;56.00
21502;DHT22;27639;48.674;9.242;2022-12-05T16:15:01;9.50;55.90
21502;DHT22;27639;48.674;9.242;2022-12-05T16:17:30;9.40;56.10
21502;DHT22;27639;48.674;9.242;2022-12-05T16:22:43;9.20;56.10
21502;DHT22;27639;48.674;9.242;2022-12-05T16:25:30;9.20;56.30
21502;DHT22;27639;48.674;9.242;2022-12-05T16:28:01;9.20;56.30
21502;DHT22;27639;48.674;9.242;2022-12-05T16:30:28;9.20;56.30
21502;DHT22;27639;48.674;9.242;2022-12-05T16:33:06;9.30;56.40
21502;DHT22;27639;48.674;9.242;2022-12-05T16:40:31;9.30;56.40
21502;DHT22;27639;48.674;9.242;2022-12-05T16:43:01;9.30;56.30
21502;DHT22;27639;48.674;9.242;2022-12-05T16:45:39;9.20;56.30
21502;DHT22;27639;48.674;9.242;2022-12-05T16:48:18;9.20;56.30
21502;DHT22;27639;48.674;9.242;2022-12-05T16:50:45;9.20;56.30
21502;DHT22;27639;48.674;9.242;2022-12-05T16:53:18;9.20;56.30
21502;DHT22;27639;48.674;9.242;2022-12-05T16:55:44;9.10;56.40
21502;DHT22;27639;48.674;9.242;2022-12-05T16:58:22;9.00;56.60
21502;DHT22;27639;48.674;9.242;2022-12-05T17:00:49;9.00;56.80
21502;DHT22;27639;48.674;9.242;2022-12-05T17:03:15;9.00;56.90
21502;DHT22;27639;48.674;9.242;2022-12-05T17:05:41;9.00;57.00
21502;DHT22;27639;48.674;9.242;2022-12-05T17:08:07;8.90;57.10
21502;DHT22;27639;48.674;9.242;2022-12-05T17:10:33;8.90;57.20
21502;DHT22;27639;48.674;9.242;2022-12-05T17:12:58;8.90;57.30
21502;DHT22;27639;48.674;9.242;2022-12-05T17:15:25;8.90;57.40
21502;DHT22;27639;48.674;9.242;2022-12-05T17:17:51;8.90;57.50
21502;DHT22;27639;48.674;9.242;2022-12-05T17:20:16;8.90;57.50
21502;DHT22;27639;48.674;9.242;2022-12-05T17:22:42;8.90;57.80
21502;DHT22;27639;48.674;9.242;2022-12-05T17:25:22;8.90;57.90
21502;DHT22;27639;48.674;9.242;2022-12-05T17:27:49;8.90;58.00
21502;DHT22;27639;48.674;9.242;2022-12-05T17:30:15;8.80;58.20
21502;DHT22;27639;48.674;9.242;2022-12-05T17:32:41;8.90;58.40
21502;DHT22;27639;48.674;9.242;2022-12-05T17:35:17;8.80;58.40
21502;DHT22;27639;48.674;9.242;2022-12-05T17:37:42;8.80;58.50
21502;DHT22;27639;48.674;9.242;2022-12-05T17:40:08;8.80;58.80
21502;DHT22;27639;48.674;9.242;2022-12-05T17:42:34;8.80;58.90
21502;DHT22;27639;48.674;9.242;2022-12-05T17:45:00;8.90;59.20
21502;DHT22;27639;48.674;9.242;2022-12-05T17:47:25;8.80;59.20
21502;DHT22;27639;48.674;9.242;2022-12-05T17:49:51;8.90;59.30
21502;DHT22;27639;48.674;9.242;2022-12-05T17:52:16;8.90;59.30
21502;DHT22;27639;48.674;9.242;2022-12-05T17:54:42;8.90;59.50
21502;DHT22;27639;48.674;9.242;2022-12-05T17:57:08;8.90;59.50
21502;DHT22;27639;48.674;9.242;2022-12-05T17:59:33;8.90;59.60
21502;DHT22;27639;48.674;9.242;2022-12-05T18:01:59;8.90;59.60
21502;DHT22;27639;48.674;9.242;2022-12-05T18:04:24;8.90;59.70
21502;DHT22;27639;48.674;9.242;2022-12-05T18:06:50;8.90;59.80
21502;DHT22;27639;48.674;9.242;2022-12-05T18:09:16;8.90;59.90
21502;DHT22;27639;48.674;9.242;2022-12-05T18:11:41;8.90;59.90
21502;DHT22;27639;48.674;9.242;2022-12-05T18:14:07;8.90;60.00
21502;DHT22;27639;48.674;9.242;2022-12-05T18:16:34;8.90;60.00
21502;DHT22;27639;48.674;9.242;2022-12-05T18:18:59;8.90;60.00
21502;DHT22;27639;48.674;9.242;2022-12-05T18:21:26;8.90;60.00
21502;DHT22;27639;48.674;9.242;2022-12-05T18:23:51;8.90;60.00
21502;DHT22;27639;48.674;9.242;2022-12-05T18:26:17;8.90;60.00
21502;DHT22;27639;48.674;9.242;2022-12-05T18:28:42;9.00;60.00
21502;DHT22;27639;48.674;9.242;2022-12-05T18:31:11;9.00;60.10
21502;DHT22;27639;48.674;9.242;2022-12-05T18:33:39;9.00;60.00
21502;DHT22;27639;48.674;9.242;2022-12-05T18:36:10;9.00;60.10
21502;DHT22;27639;48.674;9.242;2022-12-05T18:38:36;9.00;60.10
21502;DHT22;27639;48.674;9.242;2022-12-05T18:41:03;9.00;60.10
21502;DHT22;27639;48.674;9.242;2022-12-05T18:43:30;9.00;60.10
21502;DHT22;27639;48.674;9.242;2022-12-05T18:45:57;9.00;60.10
21502;DHT22;27639;48.674;9.242;2022-12-05T18:48:23;9.00;60.10
21502;DHT22;27639;48.674;9.242;2022-12-05T18:50:49;9.00;60.20
21502;DHT22;27639;48.674;9.242;2022-12-05T18:53:15;9.00;60.20
21502;DHT22;27639;48.674;9.242;2022-12-05T18:55:41;8.90;60.20
21502;DHT22;27639;48.674;9.242;2022-12-05T18:58:07;8.90;60.30
21502;DHT22;27639;48.674;9.242;2022-12-05T19:00:32;8.90;60.40
21502;DHT22;27639;48.674;9.242;2022-12-05T19:02:58;8.90;60.40
21502;DHT22;27639;48.674;9.242;2022-12-05T19:05:23;8.90;60.40